createdAt,value
2023-02-04T00:00:42.365Z,101473.44
2023-02-04T00:05:46.275Z,101501.91
2023-02-04T00:10:50.368Z,101459.22
2023-02-04T00:15:54.194Z,101368.47
2023-02-04T00:20:57.926Z,101488.44
2023-02-04T00:26:01.777Z,101480.84
2023-02-04T00:31:05.923Z,101480.13
2023-02-04T00:36:10.472Z,101473.69
2023-02-04T00:41:14.659Z,101477.13
2023-02-04T00:46:18.377Z,101495.50
2023-02-04T00:51:23.171Z,101488.75
2023-02-04T00:56:26.905Z,101453.28
2023-02-04T01:01:31.729Z,101505.94
2023-02-04T01:06:35.570Z,101497.66
2023-02-04T01:11:40.408Z,101502.66
2023-02-04T01:16:44.393Z,101512.66
2023-02-04T01:21:48.502Z,101507.44
2023-02-04T01:26:52.492Z,101503.06
2023-02-04T01:31:56.477Z,101483.81
2023-02-04T01:37:00.786Z,101499.31
2023-02-04T01:42:05.141Z,101504.16
2023-02-04T01:47:10.863Z,101519.94
2023-02-04T01:52:15.654Z,101504.88
2023-02-04T01:57:19.812Z,101511.41
2023-02-04T02:02:53.862Z,101524.03
2023-02-04T02:07:59.780Z,101525.47
2023-02-04T02:13:06.125Z,101529.63
2023-02-04T02:18:15.358Z,101533.91
2023-02-04T02:23:30.674Z,101532.38
2023-02-04T02:28:34.415Z,101535.91
2023-02-04T02:33:38.548Z,101535.19
2023-02-04T02:38:42.961Z,101556.91
2023-02-04T02:43:46.837Z,101558.66
2023-02-04T02:48:50.650Z,101569.59
2023-02-04T02:53:54.558Z,101554.03
2023-02-04T02:59:16.612Z,101550.91
2023-02-04T03:04:23.092Z,101546.03
2023-02-04T03:09:28.977Z,101560.56
2023-02-04T03:14:34.202Z,101566.88
2023-02-04T03:19:39.766Z,101563.81
2023-02-04T03:24:43.902Z,101579.41
2023-02-04T03:29:48.411Z,101582.06
2023-02-04T03:34:52.340Z,101580.00
2023-02-04T03:39:56.096Z,101478.41
2023-02-04T03:45:00.312Z,101578.09
2023-02-04T03:50:04.512Z,101585.81
2023-02-04T03:55:08.503Z,101586.03
2023-02-04T04:00:14.380Z,101578.91
2023-02-04T04:05:18.286Z,101582.66
2023-02-04T04:10:22.358Z,101582.25
2023-02-04T04:15:26.251Z,101562.50
2023-02-04T04:20:30.709Z,101576.97
2023-02-04T04:25:35.677Z,101571.03
2023-02-04T04:30:39.696Z,101583.34
2023-02-04T04:35:43.684Z,101582.38
2023-02-04T04:40:47.599Z,101576.59
2023-02-04T04:45:51.638Z,101586.69
2023-02-04T04:50:55.419Z,101583.50
2023-02-04T04:56:00.303Z,101575.09
2023-02-04T05:01:04.395Z,101476.28
2023-02-04T05:06:09.853Z,101584.78
2023-02-04T05:11:13.792Z,101581.28
2023-02-04T05:16:18.920Z,101569.34
2023-02-04T05:21:23.108Z,101570.91
2023-02-04T05:26:30.498Z,101581.88
2023-02-04T05:31:35.166Z,101571.50
2023-02-04T05:36:38.850Z,101562.56
2023-02-04T05:41:42.743Z,101576.38
2023-02-04T05:46:46.642Z,101546.34
2023-02-04T05:51:50.630Z,101562.50
2023-02-04T05:56:54.775Z,101572.44
2023-02-04T06:01:58.540Z,101553.56
2023-02-04T06:07:02.537Z,101545.03
2023-02-04T06:12:06.499Z,101550.72
2023-02-04T06:17:10.567Z,101555.47
2023-02-04T06:22:14.802Z,101557.03
2023-02-04T06:27:24.292Z,101562.84
2023-02-04T06:32:28.104Z,101556.03
2023-02-04T06:37:32.092Z,101563.13
2023-02-04T06:42:36.002Z,101577.56
2023-02-04T06:47:39.865Z,101563.03
2023-02-04T06:52:44.489Z,101577.00
2023-02-04T06:57:48.257Z,101576.69
2023-02-04T07:02:52.495Z,101551.53
2023-02-04T07:07:56.350Z,101571.50
2023-02-04T07:13:00.270Z,101564.22
2023-02-04T07:18:04.532Z,101561.84
2023-02-04T07:23:08.504Z,101567.22
2023-02-04T07:28:12.534Z,101563.13
2023-02-04T07:33:16.218Z,101552.22
2023-02-04T07:38:20.107Z,101583.03
2023-02-04T07:43:24.797Z,101587.38
2023-02-04T07:48:28.661Z,101581.50
2023-02-04T07:53:32.785Z,101565.31
2023-02-04T07:58:36.582Z,101601.13
2023-02-04T08:03:41.862Z,101586.81
2023-02-04T08:08:45.904Z,101583.50
2023-02-04T08:13:49.697Z,101524.59
2023-02-04T08:18:53.577Z,101576.97
2023-02-04T08:23:57.609Z,101574.63
2023-02-04T08:29:01.584Z,101595.03
2023-02-04T08:34:06.953Z,101581.41
2023-02-04T08:39:10.962Z,101588.56
2023-02-04T08:44:14.862Z,101600.56
2023-02-04T08:49:18.598Z,101614.28
2023-02-04T08:54:22.749Z,101604.25
2023-02-04T08:59:26.613Z,101592.56
2023-02-04T09:04:30.518Z,101597.78
2023-02-04T09:09:34.438Z,101557.66
2023-02-04T09:14:38.344Z,101604.75
2023-02-04T09:19:43.076Z,101543.38
2023-02-04T09:24:47.036Z,101609.13
2023-02-04T09:29:50.999Z,101627.75
2023-02-04T09:34:54.883Z,101619.25
2023-02-04T09:39:58.651Z,101641.25
2023-02-04T09:45:04.272Z,101633.59
2023-02-04T09:50:16.283Z,101626.78
2023-02-04T09:55:22.977Z,101620.75
2023-02-04T10:00:30.253Z,101615.59
2023-02-04T10:05:38.042Z,101618.94
2023-02-04T10:10:42.372Z,101623.09
2023-02-04T10:15:48.740Z,101610.97
2023-02-04T10:21:15.406Z,101636.38
2023-02-04T10:26:29.517Z,101628.41
2023-02-04T10:31:38.988Z,101651.34
2023-02-04T10:36:45.993Z,101660.56
2023-02-04T10:41:58.481Z,101657.75
2023-02-04T10:47:05.044Z,101650.59
2023-02-04T10:52:18.970Z,101656.19
2023-02-04T10:57:27.410Z,101651.66
2023-02-04T11:02:57.739Z,101643.66
2023-02-04T11:08:03.651Z,101661.97
2023-02-04T11:13:08.237Z,101670.25
2023-02-04T11:18:32.482Z,101670.75
2023-02-04T11:23:38.256Z,101660.81
2023-02-04T11:28:45.342Z,101673.44
2023-02-04T11:33:51.155Z,101690.03
2023-02-04T11:38:55.014Z,101686.94
2023-02-04T11:44:00.894Z,101690.66
2023-02-04T11:49:06.189Z,101708.06
2023-02-04T11:54:10.137Z,101697.59
2023-02-04T11:59:16.010Z,101699.63
2023-02-04T12:04:26.456Z,101710.03
2023-02-04T12:09:32.980Z,101708.78
2023-02-04T12:14:38.808Z,101698.72
2023-02-04T12:19:42.719Z,101631.47
2023-02-04T12:24:46.660Z,101710.84
2023-02-04T12:29:50.810Z,101727.03
2023-02-04T12:34:54.820Z,101724.28
2023-02-04T12:39:58.642Z,101719.13
2023-02-04T12:45:02.543Z,101721.44
2023-02-04T12:50:09.274Z,101715.09
2023-02-04T12:55:13.184Z,101728.91
2023-02-04T13:00:19.010Z,101746.28
2023-02-04T13:05:23.289Z,101755.03
2023-02-04T13:10:27.027Z,101761.50
2023-02-04T13:15:31.342Z,101662.59
2023-02-04T13:20:36.638Z,101752.00
2023-02-04T13:25:41.107Z,101749.78
2023-02-04T13:30:45.218Z,101736.72
2023-02-04T13:35:49.112Z,101741.34
2023-02-04T13:40:53.114Z,101741.00
2023-02-04T13:45:58.424Z,101641.41
2023-02-04T13:51:02.484Z,101749.72
2023-02-04T13:56:06.230Z,101745.47
2023-02-04T14:01:14.148Z,101762.13
2023-02-04T14:06:21.218Z,101763.19
2023-02-04T14:11:25.104Z,101758.34
2023-02-04T14:16:29.215Z,101761.28
2023-02-04T14:21:34.820Z,101763.91
2023-02-04T14:26:38.579Z,101763.63
2023-02-04T14:31:42.523Z,101772.53
2023-02-04T14:36:46.329Z,101775.44
2023-02-04T14:41:50.269Z,101777.88
2023-02-04T14:46:54.406Z,101770.13
2023-02-04T14:51:58.698Z,101787.66
2023-02-04T14:57:02.723Z,101775.75
2023-02-04T15:02:07.721Z,101789.16
2023-02-04T15:07:12.844Z,101774.63
2023-02-04T15:12:16.760Z,101791.34
2023-02-04T15:17:20.826Z,101777.72
2023-02-04T15:22:25.187Z,101780.06
2023-02-04T15:27:29.028Z,101773.19
2023-02-04T15:32:35.834Z,101784.19
2023-02-04T15:37:53.945Z,101766.25
2023-02-04T15:42:57.800Z,101797.41
2023-02-04T15:48:01.756Z,101777.47
2023-02-04T15:53:05.852Z,101772.84
2023-02-04T15:58:09.677Z,101779.22
2023-02-04T16:03:13.493Z,101784.31
2023-02-04T16:08:17.302Z,101781.09
2023-02-04T16:13:22.691Z,101776.91
2023-02-04T16:18:27.375Z,101781.97
2023-02-04T16:23:31.363Z,101795.97
2023-02-04T16:28:35.269Z,101790.50
2023-02-04T16:33:39.081Z,101785.25
2023-02-04T16:38:46.032Z,101789.63
2023-02-04T16:43:49.780Z,101792.44
2023-02-04T16:48:54.563Z,101786.44
2023-02-04T16:53:58.295Z,101786.97
2023-02-04T16:59:05.272Z,101789.63
2023-02-04T17:04:09.066Z,101796.47
2023-02-04T17:09:13.873Z,101814.69
2023-02-04T17:14:17.884Z,101829.94
2023-02-04T17:19:21.881Z,101805.69
2023-02-04T17:24:26.115Z,101693.44
2023-02-04T17:29:29.911Z,101813.19
2023-02-04T17:34:33.876Z,101814.03
2023-02-04T17:39:37.685Z,101823.28
2023-02-04T17:44:41.637Z,101822.25
2023-02-04T17:49:45.594Z,101824.81
2023-02-04T17:54:49.320Z,101832.66
2023-02-04T17:59:53.344Z,101804.84
2023-02-04T18:05:06.651Z,101799.28
2023-02-04T18:10:33.147Z,101791.22
2023-02-04T18:15:37.297Z,101816.28
2023-02-04T18:20:41.915Z,101809.38
2023-02-04T18:25:49.288Z,101816.50
2023-02-04T18:30:59.674Z,101825.47
2023-02-04T18:36:03.795Z,101821.81
2023-02-04T18:41:19.655Z,101811.06
2023-02-04T18:46:29.563Z,101829.31
2023-02-04T18:51:36.513Z,101811.34
2023-02-04T18:56:40.327Z,101826.69
2023-02-04T19:01:45.756Z,101818.75
2023-02-04T19:06:53.018Z,101825.25
2023-02-04T19:12:15.635Z,101821.31
2023-02-04T19:17:25.205Z,101822.56
2023-02-04T19:22:50.320Z,101818.72
2023-02-04T19:27:59.454Z,101814.09
2023-02-04T19:33:16.602Z,101818.09
2023-02-04T19:38:38.630Z,101795.09
2023-02-04T19:43:42.369Z,101830.97
2023-02-04T19:48:46.466Z,101828.56
2023-02-04T19:53:54.979Z,101840.03
2023-02-04T19:58:59.816Z,101833.41
2023-02-04T20:04:13.824Z,101829.19
2023-02-04T20:09:28.174Z,101835.63
2023-02-04T20:14:41.131Z,101707.22
2023-02-04T20:19:45.893Z,101876.59
2023-02-04T20:24:50.878Z,101839.38
2023-02-04T20:30:15.769Z,101844.81
2023-02-04T20:35:22.923Z,101839.16
2023-02-04T20:40:37.313Z,101826.03
2023-02-04T20:46:06.265Z,101842.91
2023-02-04T20:51:22.200Z,101844.09
2023-02-04T20:56:36.276Z,101844.66
2023-02-04T21:01:49.438Z,101817.53
2023-02-04T21:06:55.809Z,101840.56
2023-02-04T21:12:01.221Z,101855.16
2023-02-04T21:17:06.190Z,101831.72
2023-02-04T21:22:10.008Z,101843.53
2023-02-04T21:27:15.506Z,101843.41
2023-02-04T21:32:19.385Z,101850.09
2023-02-04T21:37:23.202Z,101842.03
2023-02-04T21:42:26.945Z,101828.00
2023-02-04T21:47:30.814Z,101841.63
2023-02-04T21:52:34.917Z,101843.66
2023-02-04T21:57:38.953Z,101845.50
2023-02-04T22:02:42.946Z,101862.69
2023-02-04T22:07:46.905Z,101823.13
2023-02-04T22:12:50.797Z,101846.91
2023-02-04T22:17:55.719Z,101828.31
2023-02-04T22:22:59.482Z,101838.09
2023-02-04T22:28:03.711Z,101852.47
2023-02-04T22:33:08.111Z,101854.38
2023-02-04T22:38:11.960Z,101855.44
2023-02-04T22:43:16.457Z,101855.25
2023-02-04T22:48:20.135Z,101853.41
2023-02-04T22:53:24.041Z,101858.50
2023-02-04T22:58:27.819Z,101838.06
2023-02-04T23:03:31.759Z,101847.59
2023-02-04T23:08:37.168Z,101841.66
2023-02-04T23:13:40.914Z,101850.94
2023-02-04T23:18:44.851Z,101843.16
2023-02-04T23:23:50.101Z,101842.81
2023-02-04T23:28:54.093Z,101854.69
2023-02-04T23:33:58.047Z,101853.28
2023-02-04T23:39:02.031Z,101857.53
2023-02-04T23:44:06.022Z,101866.03
2023-02-04T23:49:10.972Z,101877.88
2023-02-04T23:54:14.898Z,101896.28
2023-02-04T23:59:19.468Z,101858.94
